sensor_id;sensor_type;location;lat;lon;timestamp;pressure;altitude;pressure_sealevel;temperature;humidity
15604;BME280;7902;49.042;9.092;2023-04-02T00:05:27;98272.00;;;13.29;61.21
15604;BME280;7902;49.042;9.092;2023-04-02T00:08:00;98268.09;;;13.33;61.11
15604;BME280;7902;49.042;9.092;2023-04-02T00:10:28;98276.56;;;13.37;60.66
15604;BME280;7902;49.042;9.092;2023-04-02T00:13:00;98266.47;;;13.50;60.35
15604;BME280;7902;49.042;9.092;2023-04-02T00:15:27;98267.75;;;13.46;60.93
15604;BME280;7902;49.042;9.092;2023-04-02T00:17:53;98267.66;;;13.38;60.76
15604;BME280;7902;49.042;9.092;2023-04-02T00:20:20;98272.19;;;13.45;60.53
15604;BME280;7902;49.042;9.092;2023-04-02T00:22:47;98281.91;;;13.45;60.01
15604;BME280;7902;49.042;9.092;2023-04-02T00:25:14;98281.44;;;13.32;60.84
15604;BME280;7902;49.042;9.092;2023-04-02T00:27:40;98288.41;;;13.50;60.58
15604;BME280;7902;49.042;9.092;2023-04-02T00:30:07;98295.66;;;13.21;60.69
15604;BME280;7902;49.042;9.092;2023-04-02T00:32:34;98290.84;;;13.34;59.89
15604;BME280;7902;49.042;9.092;2023-04-02T00:35:14;98299.84;;;13.41;60.26
15604;BME280;7902;49.042;9.092;2023-04-02T00:37:43;98299.34;;;13.55;60.01
15604;BME280;7902;49.042;9.092;2023-04-02T00:40:24;98291.03;;;13.50;60.31
15604;BME280;7902;49.042;9.092;2023-04-02T00:42:52;98294.34;;;13.52;60.28
15604;BME280;7902;49.042;9.092;2023-04-02T00:45:28;98294.06;;;13.55;59.94
15604;BME280;7902;49.042;9.092;2023-04-02T00:47:58;98301.22;;;13.18;61.34
15604;BME280;7902;49.042;9.092;2023-04-02T00:50:32;98312.25;;;13.31;61.19
15604;BME280;7902;49.042;9.092;2023-04-02T00:53:04;98313.88;;;13.42;60.37
15604;BME280;7902;49.042;9.092;2023-04-02T00:55:36;98310.13;;;13.35;61.22
15604;BME280;7902;49.042;9.092;2023-04-02T00:58:11;98311.94;;;13.34;61.58
15604;BME280;7902;49.042;9.092;2023-04-02T01:00:48;98313.16;;;13.40;61.31
15604;BME280;7902;49.042;9.092;2023-04-02T01:05:49;98318.00;;;13.44;60.94
15604;BME280;7902;49.042;9.092;2023-04-02T01:11:01;98314.66;;;13.42;60.94
15604;BME280;7902;49.042;9.092;2023-04-02T01:16:59;98319.78;;;13.26;61.82
15604;BME280;7902;49.042;9.092;2023-04-02T01:19:45;98315.16;;;13.28;61.67
15604;BME280;7902;49.042;9.092;2023-04-02T01:24:58;98325.50;;;13.39;61.03
15604;BME280;7902;49.042;9.092;2023-04-02T01:27:44;98328.56;;;13.17;61.91
15604;BME280;7902;49.042;9.092;2023-04-02T01:30:14;98330.31;;;13.26;61.65
15604;BME280;7902;49.042;9.092;2023-04-02T01:32:41;98330.84;;;13.30;61.38
15604;BME280;7902;49.042;9.092;2023-04-02T01:35:08;98330.84;;;13.30;61.79
15604;BME280;7902;49.042;9.092;2023-04-02T01:37:58;98333.38;;;13.22;61.99
15604;BME280;7902;49.042;9.092;2023-04-02T01:40:44;98324.75;;;13.29;61.28
15604;BME280;7902;49.042;9.092;2023-04-02T01:43:54;98330.66;;;13.13;61.98
15604;BME280;7902;49.042;9.092;2023-04-02T01:46:29;98339.69;;;13.11;61.60
15604;BME280;7902;49.042;9.092;2023-04-02T01:49:00;98341.69;;;13.27;61.55
15604;BME280;7902;49.042;9.092;2023-04-02T01:51:33;98337.31;;;13.17;61.85
15604;BME280;7902;49.042;9.092;2023-04-02T01:54:02;98344.50;;;13.15;61.81
15604;BME280;7902;49.042;9.092;2023-04-02T01:56:29;98343.78;;;13.23;61.79
15604;BME280;7902;49.042;9.092;2023-04-02T01:58:56;98343.00;;;13.13;61.86
15604;BME280;7902;49.042;9.092;2023-04-02T02:01:27;98348.56;;;13.00;62.39
15604;BME280;7902;49.042;9.092;2023-04-02T02:03:56;98345.75;;;13.21;61.35
15604;BME280;7902;49.042;9.092;2023-04-02T02:06:22;98349.22;;;13.22;61.38
15604;BME280;7902;49.042;9.092;2023-04-02T02:08:52;98348.38;;;13.21;61.63
15604;BME280;7902;49.042;9.092;2023-04-02T02:11:22;98358.81;;;13.13;61.79
15604;BME280;7902;49.042;9.092;2023-04-02T02:14:00;98350.75;;;13.14;61.68
15604;BME280;7902;49.042;9.092;2023-04-02T02:16:28;98363.50;;;13.19;61.47
15604;BME280;7902;49.042;9.092;2023-04-02T02:19:02;98358.44;;;12.98;62.24
15604;BME280;7902;49.042;9.092;2023-04-02T02:21:43;98361.59;;;13.11;61.83
15604;BME280;7902;49.042;9.092;2023-04-02T02:24:28;98361.69;;;13.10;61.90
15604;BME280;7902;49.042;9.092;2023-04-02T02:29:54;98369.31;;;13.23;60.73
15604;BME280;7902;49.042;9.092;2023-04-02T02:32:25;98367.69;;;13.12;61.48
15604;BME280;7902;49.042;9.092;2023-04-02T02:34:57;98367.25;;;13.07;61.88
15604;BME280;7902;49.042;9.092;2023-04-02T02:37:34;98376.28;;;13.04;61.97
15604;BME280;7902;49.042;9.092;2023-04-02T02:40:04;98365.59;;;13.15;61.47
15604;BME280;7902;49.042;9.092;2023-04-02T02:42:39;98378.13;;;12.94;62.31
15604;BME280;7902;49.042;9.092;2023-04-02T02:45:11;98374.78;;;13.11;60.93
15604;BME280;7902;49.042;9.092;2023-04-02T02:47:41;98377.66;;;13.18;61.06
15604;BME280;7902;49.042;9.092;2023-04-02T02:50:17;98385.84;;;13.15;61.56
15604;BME280;7902;49.042;9.092;2023-04-02T02:52:46;98377.81;;;13.16;61.30
15604;BME280;7902;49.042;9.092;2023-04-02T02:55:17;98384.75;;;13.17;60.79
15604;BME280;7902;49.042;9.092;2023-04-02T02:57:52;98384.75;;;13.17;60.93
15604;BME280;7902;49.042;9.092;2023-04-02T03:00:19;98392.41;;;12.92;61.30
15604;BME280;7902;49.042;9.092;2023-04-02T03:02:46;98391.41;;;13.12;61.63
15604;BME280;7902;49.042;9.092;2023-04-02T03:05:16;98390.28;;;13.05;60.65
15604;BME280;7902;49.042;9.092;2023-04-02T03:07:45;98388.38;;;12.97;61.54
15604;BME280;7902;49.042;9.092;2023-04-02T03:10:18;98391.84;;;12.98;61.24
15604;BME280;7902;49.042;9.092;2023-04-02T03:13:17;98400.28;;;13.11;61.12
15604;BME280;7902;49.042;9.092;2023-04-02T03:15:56;98401.94;;;13.22;61.19
15604;BME280;7902;49.042;9.092;2023-04-02T03:18:35;98404.03;;;13.18;60.61
15604;BME280;7902;49.042;9.092;2023-04-02T03:21:38;98405.56;;;13.11;60.85
15604;BME280;7902;49.042;9.092;2023-04-02T03:24:16;98415.66;;;13.25;60.87
15604;BME280;7902;49.042;9.092;2023-04-02T03:29:33;98422.28;;;13.29;60.31
15604;BME280;7902;49.042;9.092;2023-04-02T03:32:21;98423.94;;;13.30;60.14
15604;BME280;7902;49.042;9.092;2023-04-02T03:37:37;98423.16;;;13.20;61.20
15604;BME280;7902;49.042;9.092;2023-04-02T03:40:14;98422.19;;;13.21;60.66
15604;BME280;7902;49.042;9.092;2023-04-02T03:42:48;98429.81;;;13.14;60.72
15604;BME280;7902;49.042;9.092;2023-04-02T03:45:20;98427.72;;;13.28;60.35
15604;BME280;7902;49.042;9.092;2023-04-02T03:48:10;98430.75;;;13.23;60.93
15604;BME280;7902;49.042;9.092;2023-04-02T03:50:43;98438.31;;;12.99;61.31
15604;BME280;7902;49.042;9.092;2023-04-02T03:53:12;98441.59;;;13.20;60.57
15604;BME280;7902;49.042;9.092;2023-04-02T03:55:39;98448.00;;;13.17;61.08
15604;BME280;7902;49.042;9.092;2023-04-02T03:58:29;98442.72;;;13.08;61.09
15604;BME280;7902;49.042;9.092;2023-04-02T04:03:36;98458.56;;;13.17;61.26
15604;BME280;7902;49.042;9.092;2023-04-02T04:06:10;98457.41;;;13.10;61.48
15604;BME280;7902;49.042;9.092;2023-04-02T04:08:48;98458.38;;;13.09;61.57
15604;BME280;7902;49.042;9.092;2023-04-02T04:11:18;98467.28;;;13.18;61.34
15604;BME280;7902;49.042;9.092;2023-04-02T04:13:56;98459.81;;;13.13;61.68
15604;BME280;7902;49.042;9.092;2023-04-02T04:16:38;98469.94;;;12.99;62.48
15604;BME280;7902;49.042;9.092;2023-04-02T04:21:42;98478.81;;;12.88;63.11
15604;BME280;7902;49.042;9.092;2023-04-02T04:24:17;98473.00;;;12.94;63.00
15604;BME280;7902;49.042;9.092;2023-04-02T04:26:56;98476.88;;;12.90;63.40
15604;BME280;7902;49.042;9.092;2023-04-02T04:32:14;98479.34;;;13.01;63.11
15604;BME280;7902;49.042;9.092;2023-04-02T04:34:45;98491.00;;;13.08;62.89
15604;BME280;7902;49.042;9.092;2023-04-02T04:37:31;98487.28;;;12.92;63.36
15604;BME280;7902;49.042;9.092;2023-04-02T04:40:07;98486.84;;;13.06;62.98
15604;BME280;7902;49.042;9.092;2023-04-02T04:42:37;98492.94;;;13.06;63.10
15604;BME280;7902;49.042;9.092;2023-04-02T04:47:56;98505.72;;;13.21;62.16
15604;BME280;7902;49.042;9.092;2023-04-02T04:50:37;98499.31;;;13.23;61.52
15604;BME280;7902;49.042;9.092;2023-04-02T04:53:07;98509.84;;;13.23;62.21
15604;BME280;7902;49.042;9.092;2023-04-02T04:55:42;98519.59;;;13.23;62.34
15604;BME280;7902;49.042;9.092;2023-04-02T04:58:40;98517.81;;;13.13;62.48
15604;BME280;7902;49.042;9.092;2023-04-02T05:01:28;98528.47;;;13.12;62.64
15604;BME280;7902;49.042;9.092;2023-04-02T05:06:39;98536.09;;;13.15;62.17
15604;BME280;7902;49.042;9.092;2023-04-02T05:09:17;98541.34;;;13.05;63.12
15604;BME280;7902;49.042;9.092;2023-04-02T05:11:50;98533.19;;;12.99;63.31
15604;BME280;7902;49.042;9.092;2023-04-02T05:14:30;98545.97;;;13.13;63.04
15604;BME280;7902;49.042;9.092;2023-04-02T05:17:04;98540.25;;;13.08;63.11
15604;BME280;7902;49.042;9.092;2023-04-02T05:19:41;98544.97;;;13.14;62.42
15604;BME280;7902;49.042;9.092;2023-04-02T05:22:32;98547.91;;;13.11;62.85
15604;BME280;7902;49.042;9.092;2023-04-02T05:25:24;98551.47;;;13.10;62.70
15604;BME280;7902;49.042;9.092;2023-04-02T05:33:02;98549.78;;;13.09;63.05
15604;BME280;7902;49.042;9.092;2023-04-02T05:35:34;98562.84;;;13.01;63.47
15604;BME280;7902;49.042;9.092;2023-04-02T05:38:01;98558.41;;;12.92;64.11
15604;BME280;7902;49.042;9.092;2023-04-02T05:40:35;98561.34;;;13.08;63.17
15604;BME280;7902;49.042;9.092;2023-04-02T05:43:07;98569.25;;;13.08;62.97
15604;BME280;7902;49.042;9.092;2023-04-02T05:45:39;98575.19;;;13.10;63.20
15604;BME280;7902;49.042;9.092;2023-04-02T05:48:19;98569.91;;;13.10;63.25
15604;BME280;7902;49.042;9.092;2023-04-02T05:50:49;98571.19;;;13.15;62.87
15604;BME280;7902;49.042;9.092;2023-04-02T05:53:32;98580.78;;;13.16;62.67
15604;BME280;7902;49.042;9.092;2023-04-02T05:56:14;98587.53;;;13.00;63.08
15604;BME280;7902;49.042;9.092;2023-04-02T05:58:49;98586.69;;;13.09;62.81
15604;BME280;7902;49.042;9.092;2023-04-02T06:01:35;98594.34;;;12.83;63.91
15604;BME280;7902;49.042;9.092;2023-04-02T06:06:50;98601.41;;;12.92;63.78
15604;BME280;7902;49.042;9.092;2023-04-02T06:11:59;98612.66;;;12.94;63.92
15604;BME280;7902;49.042;9.092;2023-04-02T06:14:27;98614.59;;;13.02;64.01
15604;BME280;7902;49.042;9.092;2023-04-02T06:16:53;98620.56;;;13.04;63.63
15604;BME280;7902;49.042;9.092;2023-04-02T06:19:28;98618.09;;;13.12;63.42
15604;BME280;7902;49.042;9.092;2023-04-02T06:22:08;98623.47;;;13.10;63.61
15604;BME280;7902;49.042;9.092;2023-04-02T06:24:37;98621.13;;;13.07;63.67
15604;BME280;7902;49.042;9.092;2023-04-02T06:27:05;98629.88;;;13.08;63.97
15604;BME280;7902;49.042;9.092;2023-04-02T06:29:39;98633.22;;;13.19;63.47
15604;BME280;7902;49.042;9.092;2023-04-02T06:32:08;98637.41;;;13.22;63.49
15604;BME280;7902;49.042;9.092;2023-04-02T06:34:37;98638.38;;;13.21;63.82
15604;BME280;7902;49.042;9.092;2023-04-02T06:37:11;98643.50;;;13.23;63.09
15604;BME280;7902;49.042;9.092;2023-04-02T06:39:39;98646.94;;;13.23;63.23
15604;BME280;7902;49.042;9.092;2023-04-02T06:42:16;98647.22;;;13.20;63.44
15604;BME280;7902;49.042;9.092;2023-04-02T06:44:44;98655.00;;;13.31;62.86
15604;BME280;7902;49.042;9.092;2023-04-02T06:47:38;98656.81;;;13.31;63.38
15604;BME280;7902;49.042;9.092;2023-04-02T06:50:12;98665.41;;;13.23;63.99
15604;BME280;7902;49.042;9.092;2023-04-02T06:52:45;98669.72;;;13.24;63.62
15604;BME280;7902;49.042;9.092;2023-04-02T06:55:29;98670.56;;;13.34;62.82
15604;BME280;7902;49.042;9.092;2023-04-02T06:57:56;98677.63;;;13.43;62.89
15604;BME280;7902;49.042;9.092;2023-04-02T07:00:42;98675.16;;;13.42;62.27
15604;BME280;7902;49.042;9.092;2023-04-02T07:03:14;98686.91;;;13.38;63.45
15604;BME280;7902;49.042;9.092;2023-04-02T07:05:41;98689.97;;;13.33;63.58
15604;BME280;7902;49.042;9.092;2023-04-02T07:08:07;98687.50;;;13.41;62.62
15604;BME280;7902;49.042;9.092;2023-04-02T07:10:33;98690.81;;;13.43;62.90
15604;BME280;7902;49.042;9.092;2023-04-02T07:12:59;98690.56;;;13.46;62.95
15604;BME280;7902;49.042;9.092;2023-04-02T07:15:27;98698.59;;;13.54;62.10
15604;BME280;7902;49.042;9.092;2023-04-02T07:17:53;98704.53;;;13.47;63.33
15604;BME280;7902;49.042;9.092;2023-04-02T07:20:27;98703.03;;;13.63;62.69
15604;BME280;7902;49.042;9.092;2023-04-02T07:22:54;98704.13;;;13.61;62.01
15604;BME280;7902;49.042;9.092;2023-04-02T07:25:21;98711.06;;;13.62;62.72
15604;BME280;7902;49.042;9.092;2023-04-02T07:27:47;98714.13;;;13.77;62.08
15604;BME280;7902;49.042;9.092;2023-04-02T07:30:14;98718.44;;;13.68;61.74
15604;BME280;7902;49.042;9.092;2023-04-02T07:32:40;98721.38;;;13.75;62.20
15604;BME280;7902;49.042;9.092;2023-04-02T07:35:07;98727.31;;;13.77;62.53
15604;BME280;7902;49.042;9.092;2023-04-02T07:37:35;98729.41;;;13.83;61.85
15604;BME280;7902;49.042;9.092;2023-04-02T07:40:01;98726.22;;;13.79;62.24
15604;BME280;7902;49.042;9.092;2023-04-02T07:42:28;98736.34;;;13.84;62.00
15604;BME280;7902;49.042;9.092;2023-04-02T07:44:54;98737.03;;;13.86;61.76
15604;BME280;7902;49.042;9.092;2023-04-02T07:47:20;98738.69;;;13.87;61.78
15604;BME280;7902;49.042;9.092;2023-04-02T07:49:46;98745.25;;;13.83;62.57
15604;BME280;7902;49.042;9.092;2023-04-02T07:52:12;98751.34;;;13.83;62.13
15604;BME280;7902;49.042;9.092;2023-04-02T07:54:37;98760.22;;;13.82;61.55
15604;BME280;7902;49.042;9.092;2023-04-02T07:57:04;98755.63;;;13.94;61.88
15604;BME280;7902;49.042;9.092;2023-04-02T07:59:30;98754.97;;;13.82;62.23
15604;BME280;7902;49.042;9.092;2023-04-02T08:01:56;98767.19;;;13.83;61.62
15604;BME280;7902;49.042;9.092;2023-04-02T08:04:22;98760.78;;;13.86;61.49
15604;BME280;7902;49.042;9.092;2023-04-02T08:06:48;98776.47;;;13.97;61.55
15604;BME280;7902;49.042;9.092;2023-04-02T08:09:16;98782.03;;;13.94;61.88
15604;BME280;7902;49.042;9.092;2023-04-02T08:11:42;98779.66;;;13.91;61.50
15604;BME280;7902;49.042;9.092;2023-04-02T08:14:08;98783.69;;;13.85;61.62
15604;BME280;7902;49.042;9.092;2023-04-02T08:16:52;98779.25;;;13.95;61.35
15604;BME280;7902;49.042;9.092;2023-04-02T08:19:19;98788.00;;;13.96;60.77
15604;BME280;7902;49.042;9.092;2023-04-02T08:21:45;98793.56;;;14.02;61.49
15604;BME280;7902;49.042;9.092;2023-04-02T08:24:16;98790.94;;;13.93;61.42
15604;BME280;7902;49.042;9.092;2023-04-02T08:26:44;98793.16;;;13.97;62.52
15604;BME280;7902;49.042;9.092;2023-04-02T08:29:11;98789.25;;;14.01;61.62
15604;BME280;7902;49.042;9.092;2023-04-02T08:31:36;98790.94;;;13.93;61.81
15604;BME280;7902;49.042;9.092;2023-04-02T08:34:02;98796.63;;;13.98;62.08
15604;BME280;7902;49.042;9.092;2023-04-02T08:36:33;98799.94;;;14.00;61.48
15604;BME280;7902;49.042;9.092;2023-04-02T08:38:59;98806.91;;;14.01;61.33
15604;BME280;7902;49.042;9.092;2023-04-02T08:41:26;98806.91;;;14.11;60.91
15604;BME280;7902;49.042;9.092;2023-04-02T08:46:54;98815.91;;;14.08;61.80
15604;BME280;7902;49.042;9.092;2023-04-02T08:49:29;98823.84;;;13.98;61.68
15604;BME280;7902;49.042;9.092;2023-04-02T08:51:57;98830.66;;;14.01;61.42
15604;BME280;7902;49.042;9.092;2023-04-02T08:54:29;98823.56;;;14.01;61.32
15604;BME280;7902;49.042;9.092;2023-04-02T08:59:42;98836.91;;;14.19;61.26
15604;BME280;7902;49.042;9.092;2023-04-02T09:02:38;98841.63;;;14.16;60.69
15604;BME280;7902;49.042;9.092;2023-04-02T09:05:08;98842.19;;;14.19;61.25
15604;BME280;7902;49.042;9.092;2023-04-02T09:07:40;98847.88;;;14.24;60.66
15604;BME280;7902;49.042;9.092;2023-04-02T09:10:14;98852.44;;;14.13;61.03
15604;BME280;7902;49.042;9.092;2023-04-02T09:12:42;98857.75;;;14.41;60.75
15604;BME280;7902;49.042;9.092;2023-04-02T09:15:33;98861.91;;;14.34;60.54
15604;BME280;7902;49.042;9.092;2023-04-02T09:18:12;98858.31;;;14.45;60.80
15604;BME280;7902;49.042;9.092;2023-04-02T09:20:38;98871.13;;;14.40;60.23
15604;BME280;7902;49.042;9.092;2023-04-02T09:23:06;98865.97;;;14.38;61.19
15604;BME280;7902;49.042;9.092;2023-04-02T09:25:42;98869.31;;;14.40;60.31
15604;BME280;7902;49.042;9.092;2023-04-02T09:28:10;98867.88;;;14.46;60.70
15604;BME280;7902;49.042;9.092;2023-04-02T09:30:42;98877.22;;;14.50;60.05
15604;BME280;7902;49.042;9.092;2023-04-02T09:33:11;98879.88;;;14.40;60.70
15604;BME280;7902;49.042;9.092;2023-04-02T09:38:20;98881.94;;;14.56;60.97
15604;BME280;7902;49.042;9.092;2023-04-02T09:43:22;98886.94;;;14.59;60.70
15604;BME280;7902;49.042;9.092;2023-04-02T09:48:36;98890.13;;;14.63;60.66
15604;BME280;7902;49.042;9.092;2023-04-02T09:51:17;98896.94;;;14.56;59.39
15604;BME280;7902;49.042;9.092;2023-04-02T09:54:11;98890.28;;;14.52;59.59
15604;BME280;7902;49.042;9.092;2023-04-02T09:56:39;98903.91;;;14.57;60.04
15604;BME280;7902;49.042;9.092;2023-04-02T10:01:39;98902.81;;;14.49;60.29
15604;BME280;7902;49.042;9.092;2023-04-02T10:06:52;98913.09;;;14.53;60.55
15604;BME280;7902;49.042;9.092;2023-04-02T10:09:31;98911.72;;;14.48;59.41
15604;BME280;7902;49.042;9.092;2023-04-02T10:11:58;98926.44;;;14.61;59.03
15604;BME280;7902;49.042;9.092;2023-04-02T10:14:32;98921.97;;;14.71;59.22
15604;BME280;7902;49.042;9.092;2023-04-02T10:17:08;98927.13;;;14.63;60.09
15604;BME280;7902;49.042;9.092;2023-04-02T10:19:39;98921.13;;;14.61;59.38
15604;BME280;7902;49.042;9.092;2023-04-02T10:22:18;98929.75;;;14.72;58.93
15604;BME280;7902;49.042;9.092;2023-04-02T10:24:44;98929.06;;;14.70;60.53
15604;BME280;7902;49.042;9.092;2023-04-02T10:27:30;98936.44;;;14.76;59.68
15604;BME280;7902;49.042;9.092;2023-04-02T10:32:59;98936.72;;;14.83;59.69
15604;BME280;7902;49.042;9.092;2023-04-02T10:35:52;98933.66;;;14.78;59.66
15604;BME280;7902;49.042;9.092;2023-04-02T10:38:34;98943.22;;;14.79;59.91
15604;BME280;7902;49.042;9.092;2023-04-02T10:41:21;98946.44;;;14.82;59.55
15604;BME280;7902;49.042;9.092;2023-04-02T10:49:22;98953.94;;;14.97;59.14
15604;BME280;7902;49.042;9.092;2023-04-02T11:00:03;98964.59;;;15.14;58.62
15604;BME280;7902;49.042;9.092;2023-04-02T11:02:57;98978.91;;;15.21;59.50
15604;BME280;7902;49.042;9.092;2023-04-02T11:05:45;98972.53;;;15.14;58.89
15604;BME280;7902;49.042;9.092;2023-04-02T11:08:19;98974.78;;;15.09;58.33
15604;BME280;7902;49.042;9.092;2023-04-02T11:10:58;98975.84;;;15.16;58.32
15604;BME280;7902;49.042;9.092;2023-04-02T11:16:11;98981.41;;;15.23;58.47
15604;BME280;7902;49.042;9.092;2023-04-02T11:18:40;98984.22;;;15.12;57.82
15604;BME280;7902;49.042;9.092;2023-04-02T11:21:35;98985.59;;;15.25;57.83
15604;BME280;7902;49.042;9.092;2023-04-02T11:23:59;98981.56;;;15.21;58.73
15604;BME280;7902;49.042;9.092;2023-04-02T11:26:30;98984.59;;;15.26;57.77
15604;BME280;7902;49.042;9.092;2023-04-02T11:29:13;98991.19;;;15.13;58.83
15604;BME280;7902;49.042;9.092;2023-04-02T11:31:41;98998.97;;;15.24;58.41
15604;BME280;7902;49.042;9.092;2023-04-02T11:34:13;98992.84;;;15.23;58.47
15604;BME280;7902;49.042;9.092;2023-04-02T11:44:44;99012.56;;;15.38;57.71
15604;BME280;7902;49.042;9.092;2023-04-02T11:49:57;99014.38;;;15.38;58.27
15604;BME280;7902;49.042;9.092;2023-04-02T11:52:28;99015.63;;;15.44;57.05
15604;BME280;7902;49.042;9.092;2023-04-02T11:54:58;99013.97;;;15.33;57.73
15604;BME280;7902;49.042;9.092;2023-04-02T11:57:45;99017.88;;;15.29;57.86
15604;BME280;7902;49.042;9.092;2023-04-02T12:00:15;99022.63;;;15.25;58.22
15604;BME280;7902;49.042;9.092;2023-04-02T12:03:10;99030.56;;;15.25;57.61
15604;BME280;7902;49.042;9.092;2023-04-02T12:05:58;99026.09;;;15.26;58.49
15604;BME280;7902;49.042;9.092;2023-04-02T12:08:47;99041.16;;;15.25;58.27
15604;BME280;7902;49.042;9.092;2023-04-02T12:11:30;99037.81;;;15.23;58.09
15604;BME280;7902;49.042;9.092;2023-04-02T12:13:57;99045.75;;;15.23;58.55
15604;BME280;7902;49.042;9.092;2023-04-02T12:16:24;99044.34;;;15.19;58.95
15604;BME280;7902;49.042;9.092;2023-04-02T12:18:56;99053.13;;;15.20;58.63
15604;BME280;7902;49.042;9.092;2023-04-02T12:21:24;99047.56;;;15.13;59.29
15604;BME280;7902;49.042;9.092;2023-04-02T12:23:53;99054.50;;;15.24;59.64
15604;BME280;7902;49.042;9.092;2023-04-02T12:26:27;99057.47;;;15.11;59.52
15604;BME280;7902;49.042;9.092;2023-04-02T12:31:43;99067.88;;;15.13;60.37
15604;BME280;7902;49.042;9.092;2023-04-02T12:34:17;99077.22;;;14.98;60.18
15604;BME280;7902;49.042;9.092;2023-04-02T12:36:55;99078.63;;;15.02;60.79
15604;BME280;7902;49.042;9.092;2023-04-02T12:39:21;99086.41;;;15.13;59.66
15604;BME280;7902;49.042;9.092;2023-04-02T12:41:47;99098.34;;;15.07;59.36
15604;BME280;7902;49.042;9.092;2023-04-02T12:44:15;99093.47;;;14.93;60.21
15604;BME280;7902;49.042;9.092;2023-04-02T12:46:43;99101.72;;;15.09;59.54
15604;BME280;7902;49.042;9.092;2023-04-02T12:49:20;99103.81;;;14.96;60.15
15604;BME280;7902;49.042;9.092;2023-04-02T12:51:48;99116.84;;;14.88;60.48
15604;BME280;7902;49.042;9.092;2023-04-02T12:54:16;99116.19;;;14.96;60.11
15604;BME280;7902;49.042;9.092;2023-04-02T12:56:42;99110.59;;;14.89;59.75
15604;BME280;7902;49.042;9.092;2023-04-02T12:59:38;99119.53;;;14.78;59.79
15604;BME280;7902;49.042;9.092;2023-04-02T13:02:20;99120.34;;;14.88;59.46
15604;BME280;7902;49.042;9.092;2023-04-02T13:04:50;99123.97;;;14.87;59.66
15604;BME280;7902;49.042;9.092;2023-04-02T13:07:19;99124.25;;;14.94;60.42
15604;BME280;7902;49.042;9.092;2023-04-02T13:09:48;99126.34;;;14.90;59.16
15604;BME280;7902;49.042;9.092;2023-04-02T13:12:35;99127.03;;;14.83;60.55
15604;BME280;7902;49.042;9.092;2023-04-02T13:15:05;99133.28;;;14.82;60.19
15604;BME280;7902;49.042;9.092;2023-04-02T13:22:52;99143.69;;;14.74;58.92
15604;BME280;7902;49.042;9.092;2023-04-02T13:25:21;99148.16;;;14.73;59.60
15604;BME280;7902;49.042;9.092;2023-04-02T13:27:49;99150.50;;;14.67;59.17
15604;BME280;7902;49.042;9.092;2023-04-02T13:30:21;99156.75;;;14.66;59.33
15604;BME280;7902;49.042;9.092;2023-04-02T13:32:47;99151.34;;;14.67;58.81
15604;BME280;7902;49.042;9.092;2023-04-02T13:35:13;99155.38;;;14.71;59.29
15604;BME280;7902;49.042;9.092;2023-04-02T13:37:40;99160.66;;;14.71;58.55
15604;BME280;7902;49.042;9.092;2023-04-02T13:40:06;99156.22;;;14.72;58.87
15604;BME280;7902;49.042;9.092;2023-04-02T13:42:32;99159.56;;;14.64;58.52
15604;BME280;7902;49.042;9.092;2023-04-02T13:44:58;99156.75;;;14.66;59.20
15604;BME280;7902;49.042;9.092;2023-04-02T13:47:24;99159.84;;;14.71;58.51
15604;BME280;7902;49.042;9.092;2023-04-02T13:49:50;99169.97;;;14.66;58.52
15604;BME280;7902;49.042;9.092;2023-04-02T13:52:16;99167.34;;;14.75;58.84
15604;BME280;7902;49.042;9.092;2023-04-02T13:57:14;99169.97;;;14.66;58.97
15604;BME280;7902;49.042;9.092;2023-04-02T13:59:40;99178.75;;;14.66;58.62
15604;BME280;7902;49.042;9.092;2023-04-02T14:02:13;99178.34;;;14.71;57.99
15604;BME280;7902;49.042;9.092;2023-04-02T14:04:45;99176.81;;;14.68;58.86
15604;BME280;7902;49.042;9.092;2023-04-02T14:18:26;99198.47;;;14.62;57.83
15604;BME280;7902;49.042;9.092;2023-04-02T14:34:46;99230.91;;;14.64;57.08
15604;BME280;7902;49.042;9.092;2023-04-02T14:40:19;99231.28;;;14.60;56.97
15604;BME280;7902;49.042;9.092;2023-04-02T14:42:54;99235.16;;;14.56;56.94
15604;BME280;7902;49.042;9.092;2023-04-02T14:45:29;99244.78;;;14.57;57.91
15604;BME280;7902;49.042;9.092;2023-04-02T14:48:05;99246.97;;;14.52;57.34
15604;BME280;7902;49.042;9.092;2023-04-02T14:50:39;99243.94;;;14.56;57.38
15604;BME280;7902;49.042;9.092;2023-04-02T14:53:13;99245.13;;;14.42;57.71
15604;BME280;7902;49.042;9.092;2023-04-02T14:55:43;99242.66;;;14.50;58.02
15604;BME280;7902;49.042;9.092;2023-04-02T15:00:57;99248.78;;;14.51;57.12
15604;BME280;7902;49.042;9.092;2023-04-02T15:03:28;99247.50;;;14.45;57.13
15604;BME280;7902;49.042;9.092;2023-04-02T15:05:58;99257.16;;;14.56;56.28
15604;BME280;7902;49.042;9.092;2023-04-02T15:08:27;99257.72;;;14.60;56.54
15604;BME280;7902;49.042;9.092;2023-04-02T15:11:08;99254.06;;;14.51;56.62
15604;BME280;7902;49.042;9.092;2023-04-02T15:13:39;99264.47;;;14.43;56.50
15604;BME280;7902;49.042;9.092;2023-04-02T15:16:26;99268.00;;;14.53;56.75
15604;BME280;7902;49.042;9.092;2023-04-02T15:18:56;99268.47;;;14.37;57.52
15604;BME280;7902;49.042;9.092;2023-04-02T15:24:04;99273.50;;;14.40;56.58
15604;BME280;7902;49.042;9.092;2023-04-02T15:31:44;99280.59;;;14.40;56.32
15604;BME280;7902;49.042;9.092;2023-04-02T15:34:19;99282.63;;;14.36;56.93
15604;BME280;7902;49.042;9.092;2023-04-02T15:37:04;99291.00;;;14.41;55.78
15604;BME280;7902;49.042;9.092;2023-04-02T15:39:41;99296.22;;;14.53;56.31
15604;BME280;7902;49.042;9.092;2023-04-02T15:42:21;99292.16;;;14.48;55.93
15604;BME280;7902;49.042;9.092;2023-04-02T15:53:36;99303.88;;;14.56;55.47
15604;BME280;7902;49.042;9.092;2023-04-02T15:56:14;99307.75;;;14.52;54.79
15604;BME280;7902;49.042;9.092;2023-04-02T15:59:06;99309.94;;;14.46;55.67
15604;BME280;7902;49.042;9.092;2023-04-02T16:01:52;99320.78;;;14.43;55.87
15604;BME280;7902;49.042;9.092;2023-04-02T16:07:28;99321.78;;;14.31;55.44
15604;BME280;7902;49.042;9.092;2023-04-02T16:12:32;99327.44;;;14.27;56.09
15604;BME280;7902;49.042;9.092;2023-04-02T16:15:13;99326.25;;;14.31;54.62
15604;BME280;7902;49.042;9.092;2023-04-02T16:17:50;99343.66;;;14.22;54.68
15604;BME280;7902;49.042;9.092;2023-04-02T16:20:22;99342.56;;;14.36;54.86
15604;BME280;7902;49.042;9.092;2023-04-02T16:22:58;99351.59;;;14.22;54.36